Time;durP1;ratioP1;P1;durP2;ratioP2;P2;SDS_P1;SDS_P2;PMS_P1;PMS_P2;Temp;Humidity;BMP_temperature;BMP_pressure;BME280_temperature;BME280_humidity;BME280_pressure;Samples;Min_cycle;Max_cycle;Signal;HPM_P1;HPM_P2
2023/06/10 00:00:05;;;;;;;18.27;10.43;;;;;;;16.87;100.00;94198.69;5141873;27;20593;-76
2023/06/10 00:02:32;;;;;;;16.40;9.57;;;;;;;16.85;100.00;94209.22;5134261;27;20284;-75
2023/06/10 00:04:59;;;;;;;13.38;9.60;;;;;;;16.75;100.00;94212.63;5147262;27;20223;-76
2023/06/10 00:07:25;;;;;;;14.05;10.05;;;;;;;16.80;100.00;94208.78;5134254;27;20483;-75
2023/06/10 00:09:52;;;;;;;14.48;10.20;;;;;;;16.75;100.00;94212.63;5151053;27;20204;-76
2023/06/10 00:12:20;;;;;;;14.82;9.77;;;;;;;16.70;100.00;94216.50;5150722;27;20204;-76
2023/06/10 00:14:49;;;;;;;17.90;10.73;;;;;;;16.67;100.00;94213.75;5148446;27;20286;-75
2023/06/10 00:17:16;;;;;;;17.38;11.52;;;;;;;16.69;100.00;94211.41;5150714;27;20232;-75
2023/06/10 00:19:43;;;;;;;18.70;12.15;;;;;;;16.68;100.00;94212.56;5134939;27;20197;-75
2023/06/10 00:22:10;;;;;;;18.90;12.35;;;;;;;16.65;100.00;94211.38;5131366;27;20205;-75
2023/06/10 00:24:37;;;;;;;16.95;11.45;;;;;;;16.67;100.00;94209.03;5143779;27;20303;-74
2023/06/10 00:27:05;;;;;;;15.50;10.50;;;;;;;16.80;100.00;94208.78;5149792;27;20196;-75
2023/06/10 00:29:33;;;;;;;15.05;9.68;;;;;;;16.86;100.00;94212.72;5145352;27;20246;-74
2023/06/10 00:32:00;;;;;;;15.88;9.13;;;;;;;16.83;100.00;94208.78;5137426;27;20189;-75
2023/06/10 00:34:27;;;;;;;13.05;8.57;;;;;;;16.79;100.00;94221.66;5150206;27;20560;-74
2023/06/10 00:36:53;;;;;;;12.02;7.72;;;;;;;16.72;100.00;94218.84;5138137;27;20205;-74
2023/06/10 00:39:20;;;;;;;12.52;8.32;;;;;;;16.70;100.00;94212.97;5147102;27;20253;-74
2023/06/10 00:41:47;;;;;;;13.32;7.43;;;;;;;16.79;100.00;94218.94;5150791;27;20215;-75
2023/06/10 00:44:14;;;;;;;12.02;8.07;;;;;;;16.90;100.00;94206.13;5150130;27;20763;-77
2023/06/10 00:46:42;;;;;;;10.43;7.00;;;;;;;17.03;100.00;94207.41;5150709;27;20604;-77
2023/06/10 00:49:09;;;;;;;12.98;7.57;;;;;;;17.01;100.00;94215.22;5147843;27;20555;-77
2023/06/10 00:51:37;;;;;;;12.35;7.18;;;;;;;17.05;100.00;94210.56;5150136;27;20203;-76
2023/06/10 00:54:04;;;;;;;10.88;7.07;;;;;;;17.12;100.00;94200.81;5147704;27;20207;-76
2023/06/10 00:56:31;;;;;;;13.88;7.82;;;;;;;17.22;100.00;94208.34;5137842;27;20628;-76
2023/06/10 00:58:58;;;;;;;11.23;7.20;;;;;;;17.26;100.00;94209.16;5140235;27;20312;-76
2023/06/10 01:01:25;;;;;;;11.60;6.75;;;;;;;17.17;100.00;94205.97;5140378;27;20193;-76
2023/06/10 01:03:53;;;;;;;10.80;7.10;;;;;;;17.06;100.00;94200.41;5149963;27;20701;-76
2023/06/10 01:06:33;;;;;;;12.13;7.45;;;;;;;17.07;100.00;94217.63;5147183;27;20228;-76
2023/06/10 01:09:06;;;;;;;12.85;7.90;;;;;;;17.06;100.00;94205.88;5154329;27;20200;-76
2023/06/10 01:11:41;;;;;;;12.88;7.13;;;;;;;16.98;100.00;94213.22;5134289;27;20690;-75
2023/06/10 01:14:10;;;;;;;11.32;7.38;;;;;;;16.96;100.00;94226.50;5154289;27;20196;-75
2023/06/10 01:16:40;;;;;;;14.10;8.57;;;;;;;16.85;100.00;94222.88;5152171;27;20214;-76
2023/06/10 01:19:09;;;;;;;9.13;7.47;;;;;;;16.74;100.00;94219.28;5154917;27;20228;-76
2023/06/10 01:21:39;;;;;;;15.27;8.23;;;;;;;16.69;100.00;94225.84;5143854;27;20280;-75
2023/06/10 01:24:08;;;;;;;11.63;7.88;;;;;;;16.67;100.00;94227.41;5149361;27;20227;-75
2023/06/10 01:26:36;;;;;;;15.73;9.18;;;;;;;16.66;100.00;94225.84;5148417;27;20241;-76
2023/06/10 01:29:08;;;;;;;14.00;8.55;;;;;;;16.77;100.00;94226.72;5133837;27;20228;-75
2023/06/10 01:31:43;;;;;;;10.07;7.45;;;;;;;16.78;100.00;94217.38;5133813;27;20281;-76
2023/06/10 01:34:13;;;;;;;10.50;7.82;;;;;;;16.83;100.00;94222.47;5147714;27;20226;-75
2023/06/10 01:36:42;;;;;;;13.15;7.60;;;;;;;16.96;100.00;94212.81;5133795;27;20265;-76
2023/06/10 01:39:11;;;;;;;12.02;7.78;;;;;;;16.97;100.00;94214.38;5137707;27;20208;-74
2023/06/10 01:41:39;;;;;;;13.25;7.18;;;;;;;16.93;100.00;94219.06;5154490;27;20204;-75
2023/06/10 01:44:05;;;;;;;12.18;8.10;;;;;;;16.80;100.00;94219.72;5140004;27;20224;-74
2023/06/10 01:46:32;;;;;;;12.65;7.35;;;;;;;16.85;100.00;94211.16;5142945;27;20269;-74
2023/06/10 01:48:59;;;;;;;15.32;7.88;;;;;;;16.82;100.00;94218.16;5133428;27;20208;-74
2023/06/10 01:51:26;;;;;;;12.80;7.25;;;;;;;16.89;100.00;94206.50;5133513;27;20269;-74
2023/06/10 01:53:54;;;;;;;11.68;8.02;;;;;;;17.07;100.00;94206.66;5137158;27;20659;-74
2023/06/10 01:56:21;;;;;;;10.45;7.72;;;;;;;17.21;100.00;94201.31;5154014;27;20647;-74
2023/06/10 01:58:47;;;;;;;10.32;7.63;;;;;;;17.22;100.00;94205.63;5140390;27;20245;-75
2023/06/10 02:01:15;;;;;;;9.93;8.02;;;;;;;17.33;100.00;94192.78;5142281;27;20604;-74
2023/06/10 02:03:41;;;;;;;10.48;7.10;;;;;;;17.31;100.00;94189.63;5133100;27;20509;-75
2023/06/10 02:06:08;;;;;;;11.68;8.07;;;;;;;17.27;100.00;94194.28;5133073;27;20237;-75
2023/06/10 02:08:35;;;;;;;14.85;7.72;;;;;;;17.10;100.00;94189.47;5151614;27;20257;-75
2023/06/10 02:11:03;;;;;;;12.18;7.95;;;;;;;17.20;100.00;94189.56;5142040;27;20197;-75
2023/06/10 02:13:30;;;;;;;16.13;7.75;;;;;;;17.19;100.00;94193.47;5132661;27;20201;-75
2023/06/10 02:15:57;;;;;;;13.40;8.20;;;;;;;16.99;100.00;94194.84;5132829;27;20651;-75
2023/06/10 02:18:23;;;;;;;12.10;7.80;;;;;;;17.02;100.00;94186.69;5131651;27;20546;-74
2023/06/10 02:20:50;;;;;;;11.93;8.25;;;;;;;17.04;100.00;94183.56;5144812;27;20211;-76
2023/06/10 02:23:17;;;;;;;10.15;7.78;;;;;;;16.89;100.00;94182.66;5153972;27;20286;-76
2023/06/10 02:25:44;;;;;;;9.38;7.40;;;;;;;16.80;100.00;94184.94;5153209;27;20242;-75
2023/06/10 02:28:12;;;;;;;11.48;8.48;;;;;;;16.85;100.00;94181.06;5133584;27;20229;-75
2023/06/10 02:30:40;;;;;;;11.82;8.10;;;;;;;16.77;100.00;94161.06;5145214;27;20224;-75
2023/06/10 02:33:10;;;;;;;11.45;7.47;;;;;;;16.82;100.00;94171.66;5140657;27;20627;-74
2023/06/10 02:35:37;;;;;;;16.50;8.05;;;;;;;16.83;100.00;94165.03;5137608;27;20636;-75
2023/06/10 02:38:04;;;;;;;11.25;8.18;;;;;;;16.93;100.00;94175.28;5140620;27;20200;-75
2023/06/10 02:40:31;;;;;;;10.07;7.57;;;;;;;16.93;100.00;94169.03;5151967;27;20291;-75
2023/06/10 02:42:58;;;;;;;17.40;8.05;;;;;;;16.96;100.00;94169.03;5131735;27;20619;-75
2023/06/10 02:45:26;;;;;;;13.50;7.25;;;;;;;16.94;100.00;94165.91;5133302;27;20436;-75
2023/06/10 02:47:53;;;;;;;10.57;7.28;;;;;;;16.96;100.00;94174.50;5151958;27;20671;-74
2023/06/10 02:50:20;;;;;;;14.57;7.30;;;;;;;16.89;100.00;94170.94;5136067;27;20209;-74
2023/06/10 02:52:47;;;;;;;14.35;8.40;;;;;;;16.87;100.00;94162.31;5131924;27;20269;-74
2023/06/10 02:55:13;;;;;;;12.95;8.13;;;;;;;16.93;100.00;94164.34;5134707;27;20201;-74
2023/06/10 02:57:40;;;;;;;13.90;8.00;;;;;;;17.07;100.00;94162.88;5152775;27;20265;-74
2023/06/10 03:00:10;;;;;;;13.73;7.57;;;;;;;17.20;100.00;94155.94;5152368;27;20295;-74
2023/06/10 03:02:39;;;;;;;11.55;7.72;;;;;;;17.28;100.00;94157.53;5142236;27;20193;-75
2023/06/10 03:05:09;;;;;;;12.52;7.82;;;;;;;17.20;100.00;94161.41;5131001;27;20236;-74
2023/06/10 03:07:36;;;;;;;10.18;7.82;;;;;;;17.24;100.00;94156.72;5131094;27;20670;-74
2023/06/10 03:10:04;;;;;;;9.98;7.43;;;;;;;17.36;100.00;94159.13;5130821;27;20731;-75
2023/06/10 03:12:31;;;;;;;12.07;7.65;;;;;;;17.53;100.00;94163.94;5131528;27;20632;-75
2023/06/10 03:14:57;;;;;;;12.07;8.18;;;;;;;17.53;100.00;94169.44;5136284;27;20200;-76
2023/06/10 03:17:24;;;;;;;12.85;7.22;;;;;;;17.30;100.00;94171.63;5152254;27;20265;-76
2023/06/10 03:19:52;;;;;;;12.80;9.30;;;;;;;17.28;100.00;94168.50;5138434;27;20353;-75
2023/06/10 03:22:20;;;;;;;18.13;8.82;;;;;;;17.42;100.00;94168.59;5152369;27;20229;-75
2023/06/10 03:24:50;;;;;;;11.32;7.57;;;;;;;17.35;100.00;94168.56;5132419;27;20240;-74
2023/06/10 03:27:17;;;;;;;11.40;7.65;;;;;;;17.39;100.00;94178.34;5131510;27;20711;-74
2023/06/10 03:29:44;;;;;;;9.05;6.93;;;;;;;17.30;100.00;94183.38;5130605;27;20419;-74
2023/06/10 03:32:11;;;;;;;12.52;7.43;;;;;;;17.05;100.00;94191.41;5144876;27;20193;-74
2023/06/10 03:34:38;;;;;;;17.75;9.43;;;;;;;16.83;100.00;94197.84;5131356;27;20294;-74
2023/06/10 03:37:06;;;;;;;15.20;8.60;;;;;;;16.73;100.00;94198.53;5145290;27;20208;-74
2023/06/10 03:39:34;;;;;;;13.93;9.52;;;;;;;16.73;100.00;94200.50;5152642;27;20253;-74
2023/06/10 03:42:00;;;;;;;16.15;9.55;;;;;;;16.68;100.00;94201.63;5151606;27;20201;-75
2023/06/10 03:44:27;;;;;;;12.45;9.50;;;;;;;16.72;100.00;94196.97;5130796;27;20686;-74
2023/06/10 03:46:54;;;;;;;15.25;9.27;;;;;;;16.84;100.00;94199.44;5131020;27;20258;-75
2023/06/10 03:49:25;;;;;;;16.77;9.82;;;;;;;16.98;100.00;94191.34;5139371;27;20192;-75
2023/06/10 03:51:52;;;;;;;15.02;9.68;;;;;;;17.14;100.00;94196.53;5149991;27;20211;-75
2023/06/10 03:54:20;;;;;;;13.77;9.25;;;;;;;17.28;100.00;94195.88;5139446;27;20201;-74
2023/06/10 03:56:48;;;;;;;16.25;9.40;;;;;;;17.46;100.00;94193.25;5150107;27;20204;-74
2023/06/10 03:59:14;;;;;;;13.23;9.00;;;;;;;17.40;100.00;94198.28;5139966;27;20215;-75
2023/06/10 04:01:43;;;;;;;17.88;9.77;;;;;;;17.46;100.00;94190.53;5135835;27;20209;-75
2023/06/10 04:04:10;;;;;;;16.02;9.70;;;;;;;17.45;100.00;94183.47;5130152;27;20200;-75
2023/06/10 04:06:37;;;;;;;13.57;9.68;;;;;;;17.40;100.00;94187.34;5130652;27;20293;-75
2023/06/10 04:09:04;;;;;;;16.00;10.23;;;;;;;17.46;100.00;94191.31;5130426;27;20656;-75
2023/06/10 04:11:32;;;;;;;17.83;10.75;;;;;;;17.45;100.00;94192.47;5133021;27;20232;-75
2023/06/10 04:13:59;;;;;;;16.25;9.88;;;;;;;17.49;100.00;94195.25;5150642;27;20212;-75
2023/06/10 04:16:26;;;;;;;12.57;9.50;;;;;;;17.54;100.00;94198.38;5133841;27;20608;-75
2023/06/10 04:18:53;;;;;;;19.00;10.60;;;;;;;17.46;100.00;94196.00;5129749;27;20614;-75
2023/06/10 04:21:19;;;;;;;17.20;10.57;;;;;;;17.41;100.00;94202.59;5130181;27;20278;-75
2023/06/10 04:23:46;;;;;;;14.63;9.93;;;;;;;17.38;100.00;94208.84;5130260;27;20558;-75
2023/06/10 04:26:13;;;;;;;17.23;10.90;;;;;;;17.47;100.00;94209.31;5147422;27;20231;-75
2023/06/10 04:28:41;;;;;;;14.38;10.05;;;;;;;17.42;100.00;94202.22;5141220;27;20221;-75
2023/06/10 04:31:08;;;;;;;15.02;10.18;;;;;;;17.45;100.00;94200.69;5133280;27;20232;-75
2023/06/10 04:33:34;;;;;;;15.05;9.70;;;;;;;17.49;100.00;94196.03;5150723;27;20551;-75
2023/06/10 04:36:01;;;;;;;16.88;10.80;;;;;;;17.36;100.00;94213.91;5131963;27;20204;-75
2023/06/10 04:38:28;;;;;;;16.70;10.43;;;;;;;17.49;100.00;94195.25;5130152;27;20312;-75
2023/06/10 04:40:54;;;;;;;14.25;10.68;;;;;;;17.68;100.00;94203.19;5130193;27;20209;-75
2023/06/10 04:43:21;;;;;;;14.85;10.45;;;;;;;17.60;100.00;94207.03;5129419;27;20712;-75
2023/06/10 04:45:49;;;;;;;19.67;10.70;;;;;;;17.51;100.00;94199.16;5130060;27;20232;-75
2023/06/10 04:48:16;;;;;;;17.23;10.45;;;;;;;17.56;100.00;94200.75;5129701;27;20205;-75
2023/06/10 04:50:44;;;;;;;17.63;13.23;;;;;;;17.72;100.00;94204.78;5130213;27;20208;-75
2023/06/10 04:53:10;;;;;;;17.67;11.40;;;;;;;17.74;100.00;94196.97;5130143;27;20209;-75
2023/06/10 04:55:38;;;;;;;13.18;9.82;;;;;;;17.88;100.00;94190.78;5130058;27;20204;-75
2023/06/10 04:58:04;;;;;;;15.15;10.55;;;;;;;17.98;100.00;94197.47;5129916;27;20563;-75
2023/06/10 05:00:31;;;;;;;17.10;10.80;;;;;;;18.20;100.00;94196.38;5149757;27;20279;-75
2023/06/10 05:02:59;;;;;;;14.80;10.93;;;;;;;18.26;100.00;94194.84;5150598;27;20285;-74
2023/06/10 05:05:26;;;;;;;15.75;11.77;;;;;;;17.97;100.00;94201.38;5130071;27;20224;-75
2023/06/10 05:07:53;;;;;;;21.13;11.23;;;;;;;17.98;100.00;94197.47;5129836;27;20204;-74
2023/06/10 05:10:20;;;;;;;17.83;11.73;;;;;;;18.01;100.00;94199.47;5129851;27;20245;-74
2023/06/10 05:12:46;;;;;;;16.13;11.60;;;;;;;18.13;100.00;94195.59;5129198;27;20656;-74
2023/06/10 05:15:13;;;;;;;18.77;12.07;;;;;;;18.18;100.00;94198.72;5129371;27;20208;-74
2023/06/10 05:17:40;;;;;;;16.65;11.75;;;;;;;18.13;100.00;94190.88;5128988;27;20610;-74
2023/06/10 05:20:09;;;;;;;18.23;11.40;;;;;;;18.16;100.00;94189.34;5149265;27;20241;-75
2023/06/10 05:22:36;;;;;;;17.25;11.57;;;;;;;18.22;100.00;94188.56;5136510;27;20266;-74
2023/06/10 05:25:03;;;;;;;17.95;11.63;;;;;;;18.39;100.00;94187.84;5150356;27;20208;-75
2023/06/10 05:27:29;;;;;;;16.23;10.85;;;;;;;18.62;100.00;94195.75;5136745;27;20228;-75
2023/06/10 05:29:56;;;;;;;21.42;11.50;;;;;;;18.84;100.00;94193.06;5138373;27;20733;-71
2023/06/10 05:32:23;;;;;;;22.08;10.73;;;;;;;18.81;100.00;94200.88;5149619;27;20196;-73
2023/06/10 05:39:59;;;;;;;17.42;11.65;;;;;;;18.78;100.00;94198.13;5106972;27;1326094;-74
2023/06/10 05:42:26;;;;;;;17.40;12.00;;;;;;;18.91;100.00;94196.56;5128347;28;20193;-72
2023/06/10 05:44:52;;;;;;;14.18;10.63;;;;;;;19.40;100.00;94184.03;5140206;27;20578;-72
2023/06/10 05:47:19;;;;;;;21.13;10.23;;;;;;;19.70;100.00;94197.34;5128999;27;20312;-73
2023/06/10 05:49:48;;;;;;;14.15;12.63;;;;;;;19.58;100.00;94201.28;5137283;27;20257;-75
2023/06/10 05:52:15;;;;;;;18.05;11.98;;;;;;;19.60;100.00;94198.94;5128056;27;20205;-72
2023/06/10 05:54:41;;;;;;;15.68;11.70;;;;;;;20.04;98.84;94201.19;5139780;27;20241;-71
2023/06/10 05:57:10;;;;;;;15.95;10.55;;;;;;;20.40;97.88;94201.06;5133929;27;20614;-73
2023/06/10 05:59:37;;;;;;;14.77;10.60;;;;;;;20.50;96.57;94206.50;5147217;27;20336;-75
2023/06/10 06:02:03;;;;;;;17.58;11.52;;;;;;;20.60;94.17;94202.16;5127137;27;20197;-74
2023/06/10 06:04:30;;;;;;;13.57;11.88;;;;;;;20.40;91.79;94218.34;5139735;27;20216;-73
2023/06/10 06:06:57;;;;;;;14.65;10.88;;;;;;;20.52;94.15;94209.63;5112240;27;20252;-71
2023/06/10 06:09:24;;;;;;;20.25;10.73;;;;;;;20.69;94.86;94201.69;5105372;28;20672;-72
2023/06/10 06:11:51;;;;;;;14.02;12.30;;;;;;;20.53;92.86;94205.72;5118951;28;20202;-72
2023/06/10 06:14:19;;;;;;;14.13;12.65;;;;;;;20.90;91.53;94207.09;5105605;28;20213;-73
2023/06/10 06:16:46;;;;;;;15.25;12.93;;;;;;;21.17;89.25;94199.81;5119810;28;20257;-74
2023/06/10 06:19:12;;;;;;;16.42;12.48;;;;;;;21.43;87.99;94195.69;5110103;28;20641;-73
2023/06/10 06:21:39;;;;;;;14.15;11.75;;;;;;;21.38;88.19;94201.63;5105528;28;20669;-73
2023/06/10 06:24:07;;;;;;;15.25;12.02;;;;;;;21.39;88.74;94196.88;5105374;28;20202;-72
2023/06/10 06:26:34;;;;;;;13.13;10.75;;;;;;;21.52;86.24;94197.94;5105520;28;20217;-72
2023/06/10 06:29:00;;;;;;;14.15;9.77;;;;;;;21.34;85.46;94203.59;5119512;28;20681;-72
2023/06/10 06:31:28;;;;;;;13.05;11.60;;;;;;;21.17;86.34;94202.56;5105735;28;20274;-72
2023/06/10 06:33:55;;;;;;;13.45;9.75;;;;;;;20.77;86.50;94208.75;5105898;28;20251;-73
2023/06/10 06:36:22;;;;;;;14.88;11.18;;;;;;;20.49;90.26;94215.97;5126006;28;20266;-72
2023/06/10 06:38:48;;;;;;;12.82;9.65;;;;;;;20.83;88.64;94205.16;5125123;28;20316;-72
2023/06/10 06:41:15;;;;;;;12.02;8.85;;;;;;;20.74;86.47;94198.53;5125854;28;20201;-75
2023/06/10 06:43:43;;;;;;;16.65;9.02;;;;;;;20.54;87.97;94212.78;5125189;27;20277;-76
2023/06/10 06:46:09;;;;;;;15.10;9.00;;;;;;;20.81;87.60;94206.72;5124598;28;20539;-76
2023/06/10 06:48:38;;;;;;;13.85;8.43;;;;;;;21.15;85.88;94196.66;5124984;28;20251;-76
2023/06/10 06:51:04;;;;;;;13.20;8.85;;;;;;;21.68;85.26;94192.69;5113167;28;20345;-74
2023/06/10 06:53:31;;;;;;;11.20;7.55;;;;;;;22.09;84.48;94189.91;5110508;28;20270;-72
2023/06/10 06:55:58;;;;;;;8.07;5.93;;;;;;;22.49;81.14;94193.75;5091556;28;20247;-73
2023/06/10 06:58:25;;;;;;;13.57;7.70;;;;;;;22.72;79.07;94189.50;5091752;28;20230;-73
2023/06/10 07:00:51;;;;;;;10.68;7.63;;;;;;;23.00;77.46;94186.34;5100161;28;20254;-72
2023/06/10 07:03:18;;;;;;;9.98;6.15;;;;;;;22.92;77.50;94188.47;5111732;28;20574;-71
2023/06/10 07:05:47;;;;;;;7.72;6.32;;;;;;;22.86;75.31;94186.56;5111358;28;20270;-71
2023/06/10 07:08:13;;;;;;;8.90;6.55;;;;;;;23.30;74.68;94189.06;5108562;28;20201;-72
2023/06/10 07:10:40;;;;;;;10.13;6.68;;;;;;;23.63;72.77;94175.50;5091335;28;20206;-73
2023/06/10 07:13:07;;;;;;;7.40;6.25;;;;;;;23.97;70.61;94183.56;5093567;28;20715;-73
2023/06/10 07:15:33;;;;;;;9.88;5.63;;;;;;;23.97;67.86;94181.59;5102566;28;20202;-70
2023/06/10 07:18:00;;;;;;;8.90;5.85;;;;;;;24.07;68.84;94182.56;5091278;28;20214;-73
2023/06/10 07:20:27;;;;;;;8.35;5.80;;;;;;;23.98;68.76;94172.06;5091145;28;20601;-75
2023/06/10 07:22:55;;;;;;;8.95;6.50;;;;;;;24.46;66.60;94176.31;5090633;28;20202;-73
2023/06/10 07:25:22;;;;;;;9.00;5.93;;;;;;;26.03;62.98;94168.59;5090830;28;20622;-75
2023/06/10 07:27:48;;;;;;;7.07;5.53;;;;;;;26.75;57.90;94164.63;5104813;28;20275;-73
2023/06/10 07:30:15;;;;;;;5.95;4.85;;;;;;;28.27;53.58;94156.88;5091094;28;20267;-73
2023/06/10 07:32:43;;;;;;;7.57;4.75;;;;;;;27.77;52.77;94157.78;5107423;28;20656;-73
2023/06/10 07:35:11;;;;;;;6.93;5.07;;;;;;;26.85;55.25;94178.19;5100069;28;20225;-71
2023/06/10 07:37:38;;;;;;;10.88;5.13;;;;;;;26.46;56.07;94167.44;5095560;28;20559;-71
2023/06/10 07:40:07;;;;;;;6.55;5.00;;;;;;;25.76;57.54;94165.38;5099185;28;20697;-71
2023/06/10 07:42:36;;;;;;;5.82;5.20;;;;;;;25.77;58.07;94172.50;5097675;28;20616;-72
2023/06/10 07:45:04;;;;;;;6.15;4.90;;;;;;;25.99;57.91;94158.81;5104122;27;20205;-75
2023/06/10 07:47:30;;;;;;;6.05;4.97;;;;;;;26.89;56.57;94164.97;5105038;28;20314;-74
2023/06/10 07:49:57;;;;;;;8.25;4.43;;;;;;;26.23;56.75;94164.91;5103694;28;20200;-74
2023/06/10 07:52:24;;;;;;;7.32;5.60;;;;;;;25.16;58.83;94178.72;5105131;28;20202;-73
2023/06/10 07:54:51;;;;;;;5.43;4.88;;;;;;;26.04;58.16;94175.72;5090057;28;20212;-73
2023/06/10 07:57:20;;;;;;;8.23;5.03;;;;;;;25.89;56.77;94174.53;5110047;28;20475;-73
2023/06/10 07:59:47;;;;;;;8.07;5.13;;;;;;;27.02;55.01;94167.00;5103364;28;20234;-75
2023/06/10 08:02:13;;;;;;;6.68;4.45;;;;;;;27.52;53.29;94164.19;5088743;28;20871;-75
2023/06/10 08:04:40;;;;;;;6.18;4.70;;;;;;;28.93;51.93;94163.19;5103064;28;20197;-74
2023/06/10 08:07:07;;;;;;;8.07;5.30;;;;;;;29.11;50.20;94167.31;5096224;28;20712;-74
2023/06/10 08:09:34;;;;;;;7.00;5.10;;;;;;;27.24;54.27;94170.66;5110198;28;20202;-74
2023/06/10 08:12:01;;;;;;;7.03;5.25;;;;;;;25.93;54.40;94166.91;5103908;28;20210;-75
2023/06/10 08:14:29;;;;;;;6.18;4.82;;;;;;;25.23;58.00;94167.47;5088895;28;20653;-74
2023/06/10 08:16:56;;;;;;;9.00;4.95;;;;;;;25.62;56.38;94174.06;5089227;28;20225;-74
2023/06/10 08:19:23;;;;;;;6.28;4.35;;;;;;;26.67;53.92;94161.25;5087855;28;20207;-74
2023/06/10 08:21:49;;;;;;;7.15;5.22;;;;;;;26.60;52.07;94163.47;5088790;28;20292;-74
2023/06/10 08:24:18;;;;;;;8.30;5.43;;;;;;;27.52;49.24;94158.59;5090006;28;20291;-75
2023/06/10 08:26:45;;;;;;;6.32;4.22;;;;;;;27.44;47.69;94157.28;5090165;28;20226;-74
2023/06/10 08:29:13;;;;;;;6.40;4.07;;;;;;;27.23;49.10;94157.97;5095751;28;20233;-74
2023/06/10 08:31:44;;;;;;;4.70;3.47;;;;;;;28.52;46.41;94144.03;5102185;28;20210;-74
2023/06/10 08:34:11;;;;;;;4.88;4.10;;;;;;;28.63;48.36;94144.41;5093451;27;20264;-74
2023/06/10 08:36:38;;;;;;;6.65;4.45;;;;;;;29.47;44.98;94150.72;5109527;28;20197;-75
2023/06/10 08:39:05;;;;;;;4.70;3.65;;;;;;;29.75;44.87;94136.81;5109266;28;20230;-75
2023/06/10 08:41:36;;;;;;;7.13;4.25;;;;;;;30.10;43.10;94138.09;5110076;28;20289;-75
2023/06/10 08:44:09;;;;;;;8.18;4.15;;;;;;;30.60;41.43;94133.13;5109330;28;20549;-77
2023/06/10 08:46:37;;;;;;;4.75;4.00;;;;;;;29.89;42.28;94147.38;5106844;28;20244;-74
2023/06/10 08:49:07;;;;;;;7.80;4.20;;;;;;;30.21;40.60;94134.81;5091049;27;20291;-75
2023/06/10 08:51:36;;;;;;;5.72;4.05;;;;;;;30.45;39.86;94132.19;5103957;28;20258;-75
2023/06/10 08:54:09;;;;;;;5.53;4.10;;;;;;;30.49;40.75;94132.78;5089756;28;20661;-74
2023/06/10 08:56:40;;;;;;;4.13;3.63;;;;;;;30.16;41.03;94116.69;5089476;28;20207;-75
2023/06/10 08:59:07;;;;;;;6.80;3.90;;;;;;;30.51;40.26;94119.09;5089834;28;20206;-75
2023/06/10 09:01:34;;;;;;;6.93;3.92;;;;;;;30.31;42.18;94114.81;5103471;28;20550;-74
2023/06/10 09:04:02;;;;;;;5.45;3.53;;;;;;;29.49;41.57;94117.53;5088904;28;20278;-73
2023/06/10 09:06:32;;;;;;;4.63;3.65;;;;;;;28.14;43.67;94130.28;5089043;28;20230;-73
2023/06/10 09:09:00;;;;;;;3.97;3.58;;;;;;;27.80;42.79;94129.06;5088694;28;20230;-73
2023/06/10 09:11:27;;;;;;;4.38;3.83;;;;;;;27.57;42.55;94127.47;5096691;28;20246;-73
2023/06/10 09:13:53;;;;;;;3.28;2.97;;;;;;;28.02;42.15;94112.38;5103704;27;20244;-73
2023/06/10 09:16:20;;;;;;;4.90;3.03;;;;;;;27.53;43.30;94121.22;5099896;28;20541;-73
2023/06/10 09:18:47;;;;;;;5.38;3.22;;;;;;;27.86;43.24;94118.91;5088980;28;20268;-73
2023/06/10 09:21:14;;;;;;;5.25;3.30;;;;;;;28.05;43.85;94116.25;5091836;28;20939;-73
2023/06/10 09:23:43;;;;;;;5.35;3.30;;;;;;;28.35;44.44;94112.03;5091906;28;20251;-73
2023/06/10 09:26:11;;;;;;;18.30;6.45;;;;;;;28.94;43.36;94111.75;5091807;28;20565;-73
2023/06/10 09:28:39;;;;;;;8.38;3.95;;;;;;;29.44;42.28;94106.97;5090009;28;20272;-73
2023/06/10 09:31:07;;;;;;;5.57;3.17;;;;;;;28.77;41.03;94109.63;5089868;28;20226;-72
2023/06/10 09:33:34;;;;;;;5.07;3.03;;;;;;;28.70;41.69;94107.88;5098327;28;20202;-72
2023/06/10 09:36:03;;;;;;;3.63;3.10;;;;;;;28.46;40.97;94104.03;5096635;28;20205;-73
2023/06/10 09:38:35;;;;;;;3.53;2.85;;;;;;;28.61;41.71;94100.25;5104783;28;20301;-73
2023/06/10 09:41:04;;;;;;;4.43;3.20;;;;;;;27.45;42.95;94103.22;5088654;28;20395;-71
2023/06/10 09:43:42;;;;;;;4.43;3.35;;;;;;;27.61;42.20;94102.28;5094524;28;20229;-75
2023/06/10 09:46:16;;;;;;;4.15;3.25;;;;;;;27.89;42.01;94092.16;5088297;28;20715;-79
2023/06/10 09:48:43;;;;;;;15.52;6.07;;;;;;;27.84;42.89;94089.97;5099141;28;20785;-74
2023/06/10 09:51:11;;;;;;;4.07;3.15;;;;;;;28.41;43.13;94085.13;5088591;28;20313;-73
2023/06/10 09:53:38;;;;;;;6.60;3.65;;;;;;;27.79;42.74;94093.31;5092000;28;20218;-72
2023/06/10 09:56:07;;;;;;;6.97;3.00;;;;;;;26.94;45.46;94091.34;5090370;28;20198;-73
2023/06/10 09:58:37;;;;;;;4.28;3.08;;;;;;;26.70;46.27;94088.13;5095619;28;20247;-74
2023/06/10 10:01:09;;;;;;;4.97;3.10;;;;;;;26.45;47.80;94088.88;5088173;28;20289;-74
2023/06/10 10:03:45;;;;;;;5.05;3.75;;;;;;;26.41;47.14;94098.53;5092427;28;20205;-74
2023/06/10 10:06:12;;;;;;;4.88;3.53;;;;;;;25.84;45.74;94091.81;5095971;28;20226;-73
2023/06/10 10:08:39;;;;;;;5.13;2.92;;;;;;;26.45;45.81;94085.31;5094387;28;20217;-71
2023/06/10 10:11:07;;;;;;;4.53;3.97;;;;;;;25.98;46.46;94085.84;5103712;28;20278;-72
2023/06/10 10:13:35;;;;;;;6.20;3.60;;;;;;;27.33;44.05;94072.63;5110251;28;20908;-71
2023/06/10 10:16:07;;;;;;;5.40;3.22;;;;;;;27.99;44.26;94071.53;5087582;28;20649;-75
2023/06/10 10:18:36;;;;;;;3.67;3.25;;;;;;;28.38;41.63;94063.75;5088393;28;20237;-74
2023/06/10 10:21:12;;;;;;;4.82;3.15;;;;;;;28.21;42.51;94063.19;5095944;28;20632;-73
2023/06/10 10:23:45;;;;;;;3.97;3.20;;;;;;;27.45;43.09;94069.03;5106362;28;20246;-73
2023/06/10 10:26:14;;;;;;;3.42;3.00;;;;;;;26.14;44.77;94063.56;5094968;27;20217;-73
2023/06/10 10:28:49;;;;;;;4.68;3.33;;;;;;;26.74;44.21;94066.56;5107611;27;20252;-72
2023/06/10 10:31:20;;;;;;;5.13;3.30;;;;;;;27.90;42.59;94060.31;5105308;28;20225;-71
2023/06/10 10:33:56;;;;;;;4.40;3.30;;;;;;;28.06;44.95;94048.97;5092081;28;20650;-72
2023/06/10 10:36:23;;;;;;;5.70;2.85;;;;;;;28.17;41.62;94052.13;5099858;28;20254;-72
2023/06/10 10:38:50;;;;;;;3.88;2.75;;;;;;;27.53;42.56;94059.97;5118215;27;20632;-71
2023/06/10 10:41:20;;;;;;;5.88;3.10;;;;;;;26.83;44.08;94058.31;5092127;28;20213;-72
2023/06/10 10:43:48;;;;;;;3.75;3.17;;;;;;;27.49;43.01;94053.75;5104379;27;20205;-71
2023/06/10 10:46:17;;;;;;;6.70;2.92;;;;;;;27.88;42.96;94057.22;5100072;28;20206;-72
2023/06/10 10:48:45;;;;;;;4.95;3.20;;;;;;;27.79;43.01;94048.78;5111597;28;20205;-72
2023/06/10 10:51:12;;;;;;;4.10;3.40;;;;;;;27.17;43.16;94048.53;5101920;28;20233;-72
2023/06/10 10:53:39;;;;;;;7.43;3.40;;;;;;;26.91;44.84;94042.22;5116913;27;20245;-73
2023/06/10 10:56:07;;;;;;;6.68;3.20;;;;;;;26.89;43.96;94051.00;5091117;28;20544;-73
2023/06/10 10:58:36;;;;;;;3.10;2.80;;;;;;;27.11;42.05;94041.97;5091397;28;20285;-73
2023/06/10 11:01:11;;;;;;;4.30;3.40;;;;;;;27.40;42.38;94034.22;5101045;28;20237;-73
2023/06/10 11:03:45;;;;;;;5.93;3.80;;;;;;;27.58;41.48;94034.41;5111985;28;20233;-72
2023/06/10 11:06:14;;;;;;;3.35;2.70;;;;;;;27.50;41.37;94033.06;5112014;28;20222;-73
2023/06/10 11:08:48;;;;;;;3.90;3.17;;;;;;;27.94;40.14;94027.53;5112148;28;20206;-74
2023/06/10 11:11:22;;;;;;;3.55;2.97;;;;;;;28.01;43.08;94026.50;5111342;28;20271;-74
2023/06/10 11:14:10;;;;;;;5.93;3.80;;;;;;;27.77;42.64;94026.94;5110426;27;20237;-72
2023/06/10 11:16:41;;;;;;;8.95;3.97;;;;;;;26.27;46.35;94018.38;5094110;27;20234;-73
2023/06/10 11:19:08;;;;;;;3.95;3.55;;;;;;;25.61;46.65;94025.44;5102414;28;20205;-73
2023/06/10 11:21:58;;;;;;;5.35;3.50;;;;;;;26.34;48.77;94021.00;5095161;27;20202;-73
2023/06/10 11:24:25;;;;;;;5.57;3.70;;;;;;;27.15;45.77;94012.03;5104750;28;20215;-74
2023/06/10 11:26:52;;;;;;;5.35;3.92;;;;;;;27.76;44.09;94011.47;5099793;28;20641;-73
2023/06/10 11:29:20;;;;;;;6.68;3.92;;;;;;;28.45;42.98;93999.38;5095177;28;20730;-72